createdAt,value
2022-09-20T00:01:56.428Z,66.19
2022-09-20T00:04:27.557Z,65.49
2022-09-20T00:06:57.360Z,64.50
2022-09-20T00:09:27.235Z,65.14
2022-09-20T00:11:56.997Z,67.65
2022-09-20T00:14:26.688Z,65.62
2022-09-20T00:16:56.437Z,64.02
2022-09-20T00:19:27.812Z,69.13
2022-09-20T00:21:57.114Z,66.60
2022-09-20T00:24:26.805Z,67.57
2022-09-20T00:26:56.160Z,66.28
2022-09-20T00:29:26.228Z,67.71
2022-09-20T00:31:55.527Z,66.73
2022-09-20T00:34:44.751Z,68.28
2022-09-20T00:37:14.112Z,65.92
2022-09-20T00:39:43.438Z,66.60
2022-09-20T00:42:14.762Z,68.06
2022-09-20T00:45:02.611Z,67.66
2022-09-20T00:47:37.408Z,69.92
2022-09-20T00:50:16.790Z,68.32
2022-09-20T00:52:48.340Z,64.87
2022-09-20T00:55:18.325Z,65.78
2022-09-20T00:57:48.333Z,63.62
2022-09-20T01:00:17.848Z,63.69
2022-09-20T01:02:49.987Z,63.79
2022-09-20T01:05:21.738Z,59.06
2022-09-20T01:07:52.831Z,61.73
2022-09-20T01:10:22.170Z,61.80
2022-09-20T01:12:52.754Z,65.32
2022-09-20T01:15:23.573Z,68.87
2022-09-20T01:17:54.371Z,66.53
2022-09-20T01:20:27.541Z,68.37
2022-09-20T01:23:17.848Z,63.91
2022-09-20T01:26:17.401Z,62.55
2022-09-20T01:28:49.107Z,61.99
2022-09-20T01:31:22.196Z,64.96
2022-09-20T01:33:54.593Z,69.59
2022-09-20T01:36:27.371Z,67.52
2022-09-20T01:39:04.869Z,63.13
2022-09-20T01:41:38.170Z,65.12
2022-09-20T01:44:14.987Z,69.23
2022-09-20T01:46:45.505Z,67.50
2022-09-20T01:49:22.993Z,66.45
2022-09-20T01:52:23.612Z,66.75
2022-09-20T01:55:28.283Z,67.44
2022-09-20T01:58:38.294Z,70.04
2022-09-20T02:01:27.692Z,71.26
2022-09-20T02:04:23.672Z,66.43
2022-09-20T02:07:09.457Z,66.47
2022-09-20T02:10:06.582Z,65.85
2022-09-20T02:12:50.741Z,67.60
2022-09-20T02:15:42.936Z,68.78
2022-09-20T02:18:23.261Z,69.60
2022-09-20T02:20:56.681Z,73.53
2022-09-20T02:23:42.936Z,70.02
2022-09-20T02:26:36.371Z,69.80
2022-09-20T02:29:17.768Z,64.02
2022-09-20T02:32:07.843Z,67.10
2022-09-20T02:34:55.528Z,70.02
2022-09-20T02:37:55.236Z,67.93
2022-09-20T02:40:36.953Z,68.31
2022-09-20T02:43:12.164Z,72.58
2022-09-20T02:45:45.971Z,69.05
2022-09-20T02:48:16.928Z,70.48
2022-09-20T02:50:54.645Z,71.10
2022-09-20T02:53:33.777Z,72.80
2022-09-20T02:56:09.390Z,71.95
2022-09-20T02:58:46.170Z,67.79
2022-09-20T03:01:33.036Z,69.78
2022-09-20T03:04:19.657Z,67.11
2022-09-20T03:06:54.832Z,67.37
2022-09-20T03:09:30.017Z,71.28
2022-09-20T03:12:08.232Z,70.32
2022-09-20T03:14:42.492Z,68.93
2022-09-20T03:17:20.431Z,69.95
2022-09-20T03:20:06.501Z,71.83
2022-09-20T03:22:49.531Z,65.98
2022-09-20T03:25:39.286Z,71.87
2022-09-20T03:28:28.401Z,67.92
2022-09-20T03:31:05.446Z,73.02
2022-09-20T03:33:46.539Z,69.96
2022-09-20T03:36:41.876Z,72.16
2022-09-20T03:39:32.212Z,70.74
2022-09-20T03:42:11.140Z,67.82
2022-09-20T03:45:21.176Z,66.04
2022-09-20T03:48:06.191Z,71.85
2022-09-20T03:50:45.632Z,70.00
2022-09-20T03:53:40.103Z,65.39
2022-09-20T03:56:32.229Z,69.50
2022-09-20T03:59:15.903Z,69.40
2022-09-20T04:02:17.306Z,66.29
2022-09-20T04:04:51.355Z,67.13
2022-09-20T04:07:24.925Z,67.83
2022-09-20T04:10:05.162Z,68.31
2022-09-20T04:12:44.239Z,69.07
2022-09-20T04:15:26.102Z,73.80
2022-09-20T04:18:00.364Z,69.50
2022-09-20T04:20:37.429Z,72.55
2022-09-20T04:23:23.215Z,71.94
2022-09-20T04:25:53.569Z,69.82
2022-09-20T04:28:28.628Z,71.16
2022-09-20T04:31:07.536Z,73.07
2022-09-20T04:33:42.015Z,70.40
2022-09-20T04:36:29.992Z,70.33
2022-09-20T04:39:11.813Z,71.04
2022-09-20T04:42:15.787Z,70.34
2022-09-20T04:45:11.144Z,70.09
2022-09-20T04:48:13.996Z,68.01
2022-09-20T04:51:20.276Z,75.55
2022-09-20T04:54:18.309Z,70.96
2022-09-20T04:57:05.070Z,71.11
2022-09-20T04:59:43.488Z,73.79
2022-09-20T05:02:46.997Z,73.66
2022-09-20T05:05:36.095Z,71.83
2022-09-20T05:08:41.316Z,73.02
2022-09-20T05:11:42.514Z,68.74
2022-09-20T05:14:41.065Z,67.94
2022-09-20T05:17:23.481Z,74.75
2022-09-20T05:20:27.297Z,73.23
2022-09-20T05:23:17.511Z,74.94
2022-09-20T05:26:14.244Z,70.21
2022-09-20T05:28:55.873Z,71.06
2022-09-20T05:31:37.617Z,70.12
2022-09-20T05:34:18.190Z,66.70
2022-09-20T05:36:56.854Z,70.40
2022-09-20T05:39:36.673Z,73.02
2022-09-20T05:42:18.616Z,69.60
2022-09-20T05:44:59.508Z,74.01
2022-09-20T05:47:36.552Z,67.10
2022-09-20T05:50:41.493Z,69.76
2022-09-20T05:53:30.898Z,71.42
2022-09-20T05:56:07.326Z,71.51
2022-09-20T05:58:54.328Z,68.26
2022-09-20T06:01:29.309Z,69.57
2022-09-20T06:04:10.416Z,72.24
2022-09-20T06:06:51.362Z,67.77
2022-09-20T06:09:56.258Z,68.39
2022-09-20T06:12:43.110Z,66.75
2022-09-20T06:15:21.820Z,67.04
2022-09-20T06:17:57.645Z,70.13
2022-09-20T06:20:31.185Z,69.85
2022-09-20T06:23:02.091Z,69.44
2022-09-20T06:25:36.265Z,70.28
2022-09-20T06:28:08.542Z,69.08
2022-09-20T06:30:41.215Z,67.54
2022-09-20T06:33:17.672Z,67.09
2022-09-20T06:35:50.963Z,67.28
2022-09-20T06:38:52.660Z,69.70
2022-09-20T06:41:30.069Z,71.33
2022-09-20T06:44:00.063Z,67.43
2022-09-20T06:46:30.250Z,69.01
2022-09-20T06:49:02.339Z,67.00
2022-09-20T06:51:37.691Z,66.88
2022-09-20T06:54:08.297Z,69.28
2022-09-20T06:56:39.234Z,67.36
2022-09-20T06:59:10.509Z,67.44
2022-09-20T07:01:41.878Z,66.79
2022-09-20T07:04:11.868Z,64.67
2022-09-20T07:06:42.144Z,62.34
2022-09-20T07:09:13.194Z,67.76
2022-09-20T07:11:46.987Z,66.36
2022-09-20T07:14:17.289Z,63.50
2022-09-20T07:16:47.251Z,65.63
2022-09-20T07:19:17.842Z,62.57
2022-09-20T07:21:47.184Z,61.54
2022-09-20T07:24:17.367Z,61.29
2022-09-20T07:26:59.257Z,61.07
2022-09-20T07:29:29.739Z,61.58
2022-09-20T07:31:59.533Z,60.29
2022-09-20T07:34:29.598Z,55.57
2022-09-20T07:37:00.060Z,61.10
2022-09-20T07:39:30.770Z,61.06
2022-09-20T07:42:06.186Z,63.19
2022-09-20T07:44:35.418Z,60.72
2022-09-20T07:47:07.436Z,57.22
2022-09-20T07:49:37.362Z,56.24
2022-09-20T07:52:07.789Z,58.84
2022-09-20T07:54:36.972Z,60.53
2022-09-20T07:57:10.101Z,58.81
2022-09-20T07:59:39.403Z,56.75
2022-09-20T08:02:08.773Z,57.80
2022-09-20T08:04:38.050Z,59.41
2022-09-20T08:07:07.780Z,60.67
2022-09-20T08:09:37.445Z,60.17
2022-09-20T08:14:58.414Z,62.93
2022-09-20T08:17:29.100Z,61.33
2022-09-20T08:19:58.338Z,58.86
2022-09-20T08:22:28.553Z,59.08
2022-09-20T08:24:57.752Z,57.60
2022-09-20T08:27:29.658Z,58.56
2022-09-20T08:30:01.195Z,56.66
2022-09-20T08:32:33.241Z,59.94
2022-09-20T08:35:02.720Z,54.40
2022-09-20T08:37:32.413Z,56.63
2022-09-20T08:40:01.590Z,59.70
2022-09-20T08:42:37.911Z,59.56
2022-09-20T08:45:34.449Z,56.42
2022-09-20T08:48:08.678Z,56.76
2022-09-20T08:50:38.695Z,59.66
2022-09-20T08:53:09.480Z,51.78
2022-09-20T08:55:41.714Z,54.35
2022-09-20T08:58:13.663Z,53.52
2022-09-20T09:00:46.482Z,58.42
2022-09-20T09:03:18.188Z,58.83
2022-09-20T09:05:48.636Z,55.38
2022-09-20T09:08:19.899Z,51.83
2022-09-20T09:10:54.260Z,55.92
2022-09-20T09:13:28.275Z,50.91
2022-09-20T09:16:00.660Z,53.32
2022-09-20T09:18:35.254Z,55.65
2022-09-20T09:21:05.532Z,53.57
2022-09-20T09:23:42.577Z,51.49
2022-09-20T09:26:22.282Z,52.68
2022-09-20T09:29:13.602Z,52.28
2022-09-20T09:31:46.593Z,45.88
2022-09-20T09:34:27.759Z,46.59
2022-09-20T09:36:57.757Z,47.37
2022-09-20T09:39:28.920Z,44.31
2022-09-20T09:42:01.442Z,51.16
2022-09-20T09:44:34.214Z,47.65
2022-09-20T09:47:03.898Z,49.57
2022-09-20T09:49:36.643Z,51.75
2022-09-20T09:52:12.009Z,48.76
2022-09-20T09:54:47.052Z,48.81
2022-09-20T09:57:28.778Z,49.14
2022-09-20T10:00:19.368Z,49.51
2022-09-20T10:03:11.586Z,43.65
2022-09-20T10:05:47.753Z,46.16
2022-09-20T10:08:25.223Z,47.90
2022-09-20T10:11:07.498Z,51.90
2022-09-20T10:13:41.584Z,48.45
2022-09-20T10:16:19.552Z,44.16
2022-09-20T10:18:53.819Z,46.88
2022-09-20T10:21:39.213Z,40.61
2022-09-20T10:24:17.807Z,41.74
2022-09-20T10:27:15.878Z,42.64
2022-09-20T10:29:57.567Z,40.92
2022-09-20T10:32:50.047Z,43.42
2022-09-20T10:35:28.005Z,41.79
2022-09-20T10:38:07.620Z,43.81
2022-09-20T10:40:58.741Z,41.49
2022-09-20T10:43:38.150Z,44.43
2022-09-20T10:46:31.441Z,39.31
2022-09-20T10:49:18.239Z,43.63
2022-09-20T10:51:56.637Z,43.33
2022-09-20T10:54:38.686Z,42.91
2022-09-20T10:57:28.089Z,43.34
2022-09-20T11:00:03.745Z,42.31
2022-09-20T11:02:45.945Z,45.53
2022-09-20T11:05:36.035Z,40.43
2022-09-20T11:08:12.042Z,37.42
2022-09-20T11:10:45.185Z,41.72
2022-09-20T11:13:25.969Z,43.16
2022-09-20T11:16:00.527Z,37.90
2022-09-20T11:18:35.807Z,42.62
2022-09-20T11:21:10.321Z,37.91
2022-09-20T11:23:47.230Z,39.26
2022-09-20T11:26:22.733Z,40.46
2022-09-20T11:28:55.237Z,40.11
2022-09-20T11:31:28.507Z,41.80
2022-09-20T11:34:03.505Z,39.08
2022-09-20T11:36:39.913Z,44.67
2022-09-20T11:39:16.386Z,42.37
2022-09-20T11:41:46.167Z,42.66
2022-09-20T11:44:18.491Z,41.77
2022-09-20T11:46:53.062Z,35.63
2022-09-20T11:49:25.096Z,34.74
2022-09-20T11:52:22.761Z,35.25
2022-09-20T11:55:19.345Z,37.93
2022-09-20T11:58:01.097Z,39.81
2022-09-20T12:00:32.590Z,39.74
2022-09-20T12:03:03.858Z,38.80
2022-09-20T12:05:36.065Z,40.71
2022-09-20T12:08:11.116Z,42.81
2022-09-20T12:10:44.306Z,42.35
2022-09-20T12:13:24.472Z,39.49
2022-09-20T12:16:02.188Z,37.67
2022-09-20T12:18:37.688Z,34.21
2022-09-20T12:21:16.530Z,35.05
2022-09-20T12:24:12.038Z,33.11
2022-09-20T12:26:59.316Z,33.68
2022-09-20T12:30:06.717Z,38.61
2022-09-20T12:32:56.541Z,32.86
2022-09-20T12:36:14.555Z,35.27
2022-09-20T12:39:02.293Z,36.41
2022-09-20T12:41:49.464Z,34.78
2022-09-20T12:44:31.267Z,37.16
2022-09-20T12:47:03.495Z,35.50
2022-09-20T12:50:08.526Z,37.06
2022-09-20T12:53:01.175Z,37.95
2022-09-20T12:55:41.476Z,36.83
2022-09-20T12:58:44.314Z,36.89
2022-09-20T13:01:35.420Z,38.74
2022-09-20T13:04:44.131Z,38.90
2022-09-20T13:07:41.201Z,37.15
2022-09-20T13:10:27.160Z,38.63
2022-09-20T13:13:01.604Z,40.73
2022-09-20T13:15:33.288Z,35.86
2022-09-20T13:18:04.289Z,41.29
2022-09-20T13:23:23.650Z,38.03
2022-09-20T13:25:53.236Z,35.27
2022-09-20T13:28:36.623Z,35.69
2022-09-20T13:31:30.147Z,37.15
2022-09-20T13:34:15.948Z,36.34
2022-09-20T13:36:45.206Z,34.64
2022-09-20T13:39:29.477Z,35.88
2022-09-20T13:42:07.119Z,36.23
2022-09-20T13:44:37.396Z,33.91
2022-09-20T13:47:24.751Z,33.81
2022-09-20T13:49:56.858Z,36.09
2022-09-20T13:52:28.570Z,32.53
2022-09-20T13:54:58.524Z,35.65
2022-09-20T13:57:31.485Z,33.35
2022-09-20T14:00:01.784Z,33.80
2022-09-20T14:02:34.526Z,34.73
2022-09-20T14:05:07.317Z,34.34
2022-09-20T14:07:37.486Z,31.61
2022-09-20T14:10:27.110Z,35.50
2022-09-20T14:15:49.513Z,33.12
2022-09-20T14:18:22.285Z,35.47
2022-09-20T14:20:51.774Z,34.11
2022-09-20T14:23:25.445Z,34.80
2022-09-20T14:26:22.101Z,35.95
2022-09-20T14:28:51.509Z,35.97
2022-09-20T14:31:23.879Z,40.37
2022-09-20T14:33:56.550Z,37.90
2022-09-20T14:36:27.757Z,38.44
2022-09-20T14:39:00.647Z,38.24
2022-09-20T14:41:34.114Z,40.04
2022-09-20T14:44:04.293Z,41.04
2022-09-20T14:46:35.925Z,40.15
2022-09-20T14:49:39.808Z,38.10
2022-09-20T14:52:40.180Z,38.65
2022-09-20T14:55:28.665Z,34.63
2022-09-20T14:58:04.345Z,33.38
2022-09-20T15:00:49.020Z,32.69
2022-09-20T15:03:23.181Z,37.45
2022-09-20T15:05:53.839Z,36.87
2022-09-20T15:08:23.419Z,37.88
2022-09-20T15:10:52.702Z,38.71
2022-09-20T15:13:21.954Z,35.49
2022-09-20T15:15:54.324Z,38.07
2022-09-20T15:18:40.977Z,38.16
2022-09-20T15:21:12.584Z,41.30
2022-09-20T15:23:42.409Z,40.07
2022-09-20T15:26:13.325Z,37.96
2022-09-20T15:28:43.015Z,40.32
2022-09-20T15:31:16.509Z,42.37
2022-09-20T15:33:45.776Z,41.79
2022-09-20T15:36:16.448Z,42.98
2022-09-20T15:38:46.061Z,45.32
2022-09-20T15:41:15.425Z,42.33
2022-09-20T15:43:45.031Z,42.93
2022-09-20T15:46:21.576Z,40.11
2022-09-20T15:48:52.905Z,37.13
2022-09-20T15:51:24.437Z,38.93
2022-09-20T15:53:57.707Z,38.79
2022-09-20T15:56:28.769Z,43.75
2022-09-20T15:59:00.451Z,42.11
2022-09-20T16:01:32.186Z,39.53
2022-09-20T16:04:02.311Z,42.93
2022-09-20T16:06:34.445Z,41.58
2022-09-20T16:09:03.934Z,45.92
2022-09-20T16:11:33.266Z,43.57
2022-09-20T16:14:03.068Z,41.39
2022-09-20T16:16:38.883Z,44.26
2022-09-20T16:19:18.047Z,41.83
2022-09-20T16:21:53.774Z,44.55
2022-09-20T16:24:28.914Z,47.01
2022-09-20T16:27:01.439Z,41.79
2022-09-20T16:29:31.168Z,44.20
2022-09-20T16:32:01.820Z,44.63
2022-09-20T16:34:33.096Z,44.60
2022-09-20T16:37:05.867Z,48.17
2022-09-20T16:39:35.512Z,42.96
2022-09-20T16:42:08.790Z,48.85
2022-09-20T16:44:40.094Z,44.63
2022-09-20T16:47:18.253Z,43.71
2022-09-20T16:49:48.171Z,46.03
2022-09-20T16:52:18.942Z,47.05
2022-09-20T16:54:48.593Z,41.39
2022-09-20T16:57:17.946Z,45.23
2022-09-20T16:59:48.319Z,46.35
2022-09-20T17:02:18.032Z,43.52
2022-09-20T17:04:47.875Z,43.21
2022-09-20T17:07:18.814Z,40.50
2022-09-20T17:09:48.176Z,41.37
2022-09-20T17:12:21.929Z,44.18
2022-09-20T17:14:51.429Z,43.83
2022-09-20T17:17:22.881Z,44.19
2022-09-20T17:19:52.531Z,45.98
2022-09-20T17:22:23.737Z,47.57
2022-09-20T17:24:53.642Z,42.31
2022-09-20T17:27:24.122Z,45.10
2022-09-20T17:29:53.697Z,45.55
2022-09-20T17:32:23.137Z,41.37
2022-09-20T17:34:52.918Z,46.02
2022-09-20T17:37:23.832Z,44.23
2022-09-20T17:39:53.099Z,43.73
2022-09-20T17:42:23.203Z,40.93
2022-09-20T17:44:52.418Z,44.14
2022-09-20T17:47:22.720Z,45.89
2022-09-20T17:49:54.926Z,45.91
2022-09-20T17:52:26.310Z,42.97
2022-09-20T17:54:56.666Z,46.99
2022-09-20T17:57:25.893Z,42.91
2022-09-20T17:59:55.122Z,50.62
2022-09-20T18:02:28.180Z,47.60
2022-09-20T18:05:06.742Z,44.39
2022-09-20T18:07:48.655Z,44.27
2022-09-20T18:10:17.812Z,47.64
2022-09-20T18:12:47.605Z,48.58
2022-09-20T18:15:17.928Z,50.24
2022-09-20T18:17:51.329Z,46.90
2022-09-20T18:20:23.643Z,47.68
2022-09-20T18:22:54.950Z,50.17
2022-09-20T18:25:25.292Z,49.44
2022-09-20T18:27:55.021Z,50.46
2022-09-20T18:30:24.482Z,50.67
2022-09-20T18:32:54.145Z,50.86
2022-09-20T18:35:23.699Z,51.37
2022-09-20T18:37:54.488Z,54.18
2022-09-20T18:40:25.221Z,50.38
2022-09-20T18:43:03.712Z,52.85
2022-09-20T18:45:35.063Z,50.90
2022-09-20T18:48:07.571Z,54.32
2022-09-20T18:50:37.610Z,51.86
2022-09-20T18:53:08.699Z,54.75
2022-09-20T18:55:38.927Z,52.37
2022-09-20T18:58:10.042Z,51.97
2022-09-20T19:00:39.930Z,52.01
2022-09-20T19:03:16.077Z,48.96
2022-09-20T19:05:48.740Z,52.17
2022-09-20T19:08:35.566Z,47.94
2022-09-20T19:11:09.805Z,49.16
2022-09-20T19:13:45.105Z,49.29
2022-09-20T19:16:19.730Z,47.79
2022-09-20T19:19:13.560Z,49.38
2022-09-20T19:21:49.605Z,48.83
2022-09-20T19:24:42.191Z,50.12
2022-09-20T19:27:13.928Z,48.70
2022-09-20T19:29:44.516Z,49.84
2022-09-20T19:32:21.528Z,52.46
2022-09-20T19:34:55.268Z,48.18
2022-09-20T19:37:33.023Z,52.00
2022-09-20T19:40:26.406Z,50.66
2022-09-20T19:43:06.581Z,48.93
2022-09-20T19:45:42.128Z,48.89
2022-09-20T19:48:19.438Z,49.46
2022-09-20T19:50:53.271Z,51.93
2022-09-20T19:53:28.322Z,52.04
2022-09-20T19:56:02.214Z,54.21
2022-09-20T19:58:32.127Z,54.29
2022-09-20T20:01:01.819Z,54.18
2022-09-20T20:03:31.774Z,54.66
2022-09-20T20:06:08.076Z,52.91
2022-09-20T20:08:45.841Z,54.82
2022-09-20T20:11:25.148Z,54.86
2022-09-20T20:14:10.278Z,53.54
2022-09-20T20:16:46.997Z,55.57
2022-09-20T20:19:36.588Z,54.35
2022-09-20T20:22:23.655Z,55.62
2022-09-20T20:24:54.359Z,53.68
2022-09-20T20:27:28.445Z,55.06
2022-09-20T20:29:58.401Z,54.02
2022-09-20T20:32:28.087Z,54.84
2022-09-20T20:34:58.077Z,59.47
2022-09-20T20:37:31.097Z,57.62
2022-09-20T20:40:02.692Z,59.17
2022-09-20T20:42:39.774Z,58.56
2022-09-20T20:45:10.162Z,56.48
2022-09-20T20:47:58.382Z,59.48
2022-09-20T20:50:44.841Z,59.35
2022-09-20T20:53:30.503Z,60.36
2022-09-20T20:56:56.129Z,59.33
2022-09-20T20:59:40.940Z,61.54
2022-09-20T21:02:14.800Z,58.27
2022-09-20T21:04:50.974Z,60.18
2022-09-20T21:07:56.348Z,60.21
2022-09-20T21:10:52.112Z,60.12
2022-09-20T21:14:08.423Z,59.45
2022-09-20T21:20:34.127Z,59.33
2022-09-20T21:23:27.503Z,63.17
2022-09-20T21:26:18.007Z,63.05
2022-09-20T21:28:52.181Z,58.48
2022-09-20T21:31:22.773Z,61.05
2022-09-20T21:33:53.949Z,62.43
2022-09-20T21:36:27.762Z,62.96
2022-09-20T21:39:00.884Z,60.65
2022-09-20T21:41:34.164Z,60.32
2022-09-20T21:44:05.091Z,62.26
2022-09-20T21:46:36.429Z,63.42
2022-09-20T21:49:09.135Z,60.13
2022-09-20T21:51:39.238Z,62.78
2022-09-20T21:54:08.953Z,63.45
2022-09-20T21:56:40.316Z,62.02
2022-09-20T21:59:10.715Z,64.79
2022-09-20T22:01:41.458Z,64.27
2022-09-20T22:04:13.351Z,64.90
2022-09-20T22:06:45.357Z,67.06
2022-09-20T22:09:19.826Z,65.16
2022-09-20T22:11:51.072Z,62.13
2022-09-20T22:14:21.378Z,58.16
2022-09-20T22:16:51.622Z,60.35
2022-09-20T22:19:22.489Z,60.22
2022-09-20T22:21:52.347Z,60.66
2022-09-20T22:24:21.672Z,61.77
2022-09-20T22:26:53.715Z,62.05
2022-09-20T22:29:25.854Z,60.67
2022-09-20T22:31:55.425Z,58.40
2022-09-20T22:34:29.080Z,62.38
2022-09-20T22:36:58.652Z,61.57
2022-09-20T22:39:28.116Z,61.38
2022-09-20T22:41:57.555Z,58.77
2022-09-20T22:44:26.990Z,63.46
2022-09-20T22:46:57.602Z,59.53
2022-09-20T22:49:28.324Z,63.15
2022-09-20T22:51:57.573Z,63.92
2022-09-20T22:54:27.112Z,62.27
2022-09-20T22:56:59.598Z,64.53
2022-09-20T22:59:29.490Z,64.30
2022-09-20T23:01:59.187Z,63.96
2022-09-20T23:04:32.798Z,64.27
2022-09-20T23:07:01.930Z,63.51
2022-09-20T23:09:31.820Z,63.59
2022-09-20T23:12:01.657Z,62.19
2022-09-20T23:14:31.174Z,60.65
2022-09-20T23:17:00.997Z,64.72
2022-09-20T23:19:32.170Z,62.65
2022-09-20T23:22:02.127Z,60.25
2022-09-20T23:24:31.593Z,63.92
2022-09-20T23:27:03.264Z,65.20
2022-09-20T23:29:34.551Z,66.72
2022-09-20T23:32:13.765Z,63.67
2022-09-20T23:34:47.181Z,64.56
2022-09-20T23:37:17.181Z,62.81
2022-09-20T23:39:46.718Z,64.53
2022-09-20T23:42:16.026Z,71.25
2022-09-20T23:44:45.668Z,64.36
2022-09-20T23:47:15.064Z,65.23
2022-09-20T23:49:49.056Z,65.46
2022-09-20T23:52:20.894Z,67.36
2022-09-20T23:54:50.323Z,63.42
2022-09-20T23:57:24.421Z,63.88
2022-09-20T23:59:54.444Z,68.06
